Hlavní strana
METAR-TAF:

METAR-TAF

Letiště :

Frontone, Itálie

zeměpisná šířka: 43-31N, zeměpisná délka: 012-44E, výška: 570 m

Aktuální stav počasí

Zpráva byla vytvořena před 48 minutami, v 03:55 UTC
Severní vítr 5 kt
Teplota 7°C
Vlhkost vzduchu 93%
Tlak 1014 hPa
Viditelnost 10 km a více
Polojasno ve výšce 2500 ft

METAR: LIVF 180355Z 01005KT 9999 SCT025 07/06 Q1014 RMK BKN SCT080 MON S W CIME INC NC VAL NIL VIS MIN 9999

Čas: 05:43 (04:43 UTC)


TAF: chybějící

Stav a předpovědi počasí z více než 4 000 letišť (zprávy METAR a TAF).

Červené a žluté tečky na mapě představují dostupné meteorologické stanice.

Když kurzor umístíte na tečku, zobrazí se název stanice.

Pak kliknutím zobrazíte stav a předpověď počasí.

Chcete-li změnit mapu, kliknutím na zelené tlačítko se znaménkem +mapu přiblížíte, kliknutím na zelené tlačítko se znaménkem – mapu oddálíte a kliknutím na zelené šipky přejdete na sousední mapy.


METAR-TAF: